createdAt,value
2019-03-01T00:02:30.148Z,3.90
2019-03-01T00:05:52.892Z,3.80
2019-03-01T00:08:41.299Z,3.90
2019-03-01T00:11:27.181Z,3.90
2019-03-01T00:14:37.976Z,3.70
2019-03-01T00:17:44.507Z,3.60
2019-03-01T00:20:29.732Z,3.60
2019-03-01T00:23:15.719Z,3.50
2019-03-01T00:26:09.872Z,3.40
2019-03-01T00:29:13.156Z,3.40
2019-03-01T00:31:49.899Z,3.30
2019-03-01T00:34:58.728Z,3.30
2019-03-01T00:37:57.569Z,3.30
2019-03-01T00:40:47.764Z,3.30
2019-03-01T00:43:58.063Z,3.30
2019-03-01T00:46:28.151Z,3.30
2019-03-01T00:48:58.771Z,3.20
2019-03-01T00:51:29.041Z,3.00
2019-03-01T00:53:59.512Z,2.90
2019-03-01T00:56:29.805Z,2.90
2019-03-01T00:58:59.905Z,2.80
2019-03-01T01:01:30.176Z,2.80
2019-03-01T01:04:00.620Z,2.70
2019-03-01T01:06:30.945Z,2.60
2019-03-01T01:09:01.373Z,2.60
2019-03-01T01:11:33.004Z,2.70
2019-03-01T01:14:03.326Z,2.60
2019-03-01T01:16:34.800Z,2.60
2019-03-01T01:19:04.931Z,2.50
2019-03-01T01:21:35.250Z,2.50
2019-03-01T01:24:05.782Z,2.50
2019-03-01T01:26:36.408Z,2.50
2019-03-01T01:29:06.728Z,2.50
2019-03-01T01:31:37.100Z,2.50
2019-03-01T01:34:07.481Z,2.50
2019-03-01T01:36:37.647Z,2.50
2019-03-01T01:39:08.814Z,2.40
2019-03-01T01:41:39.285Z,2.50
2019-03-01T01:44:09.857Z,2.50
2019-03-01T01:46:39.884Z,2.70
2019-03-01T01:49:10.208Z,2.90
2019-03-01T01:51:40.568Z,2.90
2019-03-01T01:54:10.907Z,3.00
2019-03-01T01:56:40.949Z,3.20
2019-03-01T01:59:11.341Z,3.20
2019-03-01T02:01:42.027Z,3.30
2019-03-01T02:04:12.620Z,3.30
2019-03-01T02:06:42.813Z,3.40
2019-03-01T02:09:24.593Z,3.40
2019-03-01T02:11:55.547Z,3.40
2019-03-01T02:14:27.221Z,3.40
2019-03-01T02:16:57.732Z,3.50
2019-03-01T02:19:27.900Z,3.50
2019-03-01T02:21:58.169Z,3.80
2019-03-01T02:24:28.269Z,3.80
2019-03-01T02:27:21.384Z,3.80
2019-03-01T02:29:51.811Z,3.80
2019-03-01T02:32:30.146Z,3.80
2019-03-01T02:35:00.697Z,3.70
2019-03-01T02:37:30.878Z,3.90
2019-03-01T02:40:02.248Z,3.90
2019-03-01T02:42:33.038Z,3.90
2019-03-01T02:45:03.101Z,3.90
2019-03-01T02:47:34.645Z,3.90
2019-03-01T02:50:05.504Z,4.00
2019-03-01T02:52:36.022Z,4.10
2019-03-01T02:55:07.017Z,4.10
2019-03-01T02:57:37.729Z,4.10
2019-03-01T03:00:12.221Z,3.90
2019-03-01T03:02:42.308Z,3.80
2019-03-01T03:05:12.560Z,3.80
2019-03-01T03:07:48.709Z,3.80
2019-03-01T03:10:19.052Z,3.70
2019-03-01T03:12:50.262Z,3.50
2019-03-01T03:15:28.395Z,3.50
2019-03-01T03:17:59.265Z,3.40
2019-03-01T03:20:29.458Z,3.50
2019-03-01T03:22:59.775Z,3.60
2019-03-01T03:25:29.885Z,3.80
2019-03-01T03:28:00.474Z,3.90
2019-03-01T03:30:30.504Z,3.80
2019-03-01T03:33:00.602Z,3.60
2019-03-01T03:35:30.702Z,3.50
2019-03-01T03:38:00.966Z,3.40
2019-03-01T03:40:31.277Z,3.30
2019-03-01T03:43:01.361Z,3.30
2019-03-01T03:45:31.616Z,3.40
2019-03-01T03:48:01.941Z,3.50
2019-03-01T03:50:32.200Z,3.60
2019-03-01T03:53:02.504Z,3.60
2019-03-01T03:55:33.027Z,3.60
2019-03-01T03:58:03.582Z,3.60
2019-03-01T04:00:34.503Z,3.70
2019-03-01T04:03:06.033Z,3.80
2019-03-01T04:05:36.129Z,3.90
2019-03-01T04:08:06.402Z,3.90
2019-03-01T04:10:36.468Z,3.90
2019-03-01T04:13:06.816Z,3.90
2019-03-01T04:15:36.847Z,4.00
2019-03-01T04:18:07.262Z,4.10
2019-03-01T04:20:37.544Z,4.10
2019-03-01T04:23:08.173Z,4.20
2019-03-01T04:25:38.680Z,4.20
2019-03-01T04:28:08.988Z,4.10
2019-03-01T04:30:39.024Z,4.10
2019-03-01T04:33:09.345Z,4.20
2019-03-01T04:35:39.656Z,4.20
2019-03-01T04:38:09.742Z,4.10
2019-03-01T04:40:40.323Z,4.10
2019-03-01T04:43:10.390Z,4.00
2019-03-01T04:45:41.252Z,4.00
2019-03-01T04:48:11.703Z,3.90
2019-03-01T04:50:42.115Z,4.00
2019-03-01T04:53:12.156Z,3.90
2019-03-01T04:55:43.322Z,3.80
2019-03-01T04:58:14.241Z,4.00
2019-03-01T05:00:44.580Z,4.10
2019-03-01T05:03:15.188Z,4.10
2019-03-01T05:05:45.511Z,3.90
2019-03-01T05:08:15.849Z,3.90
2019-03-01T05:10:46.144Z,3.90
2019-03-01T05:13:16.237Z,3.90
2019-03-01T05:15:46.505Z,3.90
2019-03-01T05:18:16.857Z,3.90
2019-03-01T05:20:47.233Z,3.90
2019-03-01T05:23:17.585Z,3.80
2019-03-01T05:25:47.856Z,3.80
2019-03-01T05:28:18.164Z,3.70
2019-03-01T05:30:48.833Z,3.60
2019-03-01T05:33:18.924Z,3.50
2019-03-01T05:35:50.177Z,3.40
2019-03-01T05:38:22.020Z,3.30
2019-03-01T05:40:52.266Z,3.10
2019-03-01T05:43:22.916Z,3.00
2019-03-01T05:45:53.715Z,2.90
2019-03-01T05:48:23.800Z,2.90
2019-03-01T05:50:54.236Z,2.90
2019-03-01T05:53:24.570Z,2.90
2019-03-01T05:55:54.875Z,3.00
2019-03-01T05:58:33.406Z,3.20
2019-03-01T06:01:20.621Z,3.30
2019-03-01T06:04:16.094Z,3.20
2019-03-01T06:07:14.645Z,3.10
2019-03-01T06:10:07.864Z,3.20
2019-03-01T06:13:18.405Z,3.00
2019-03-01T06:16:14.145Z,2.90
2019-03-01T06:19:41.000Z,2.80
2019-03-01T06:22:39.705Z,2.60
2019-03-01T06:25:38.029Z,2.50
2019-03-01T06:28:13.628Z,2.80
2019-03-01T06:31:08.749Z,3.00
2019-03-01T06:33:51.464Z,3.30
2019-03-01T06:36:28.436Z,3.30
2019-03-01T06:39:34.027Z,3.20
2019-03-01T06:42:30.696Z,3.10
2019-03-01T06:45:48.945Z,3.10
2019-03-01T06:48:29.922Z,3.10
2019-03-01T06:51:08.499Z,3.20
2019-03-01T06:53:39.065Z,3.20
2019-03-01T06:56:09.532Z,3.30
2019-03-01T06:58:43.132Z,3.60
2019-03-01T07:01:18.149Z,4.00
2019-03-01T07:04:04.004Z,4.00
2019-03-01T07:06:35.177Z,4.00
2019-03-01T07:09:07.439Z,3.90
2019-03-01T07:11:37.813Z,3.70
2019-03-01T07:14:08.404Z,3.70
2019-03-01T07:16:39.424Z,3.70
2019-03-01T07:19:09.912Z,3.60
2019-03-01T07:21:40.793Z,3.60
2019-03-01T07:24:11.202Z,3.60
2019-03-01T07:26:41.745Z,3.80
2019-03-01T07:29:11.989Z,3.60
2019-03-01T07:31:42.300Z,3.60
2019-03-01T07:34:12.657Z,3.70
2019-03-01T07:36:43.052Z,3.80
2019-03-01T07:39:13.098Z,3.80
2019-03-01T07:41:43.183Z,3.80
2019-03-01T07:44:13.269Z,3.90
2019-03-01T07:46:52.568Z,4.00
2019-03-01T07:49:16.089Z,4.10
2019-03-01T07:51:46.429Z,4.10
2019-03-01T07:54:18.083Z,4.10
2019-03-01T07:56:48.548Z,4.10
2019-03-01T07:59:18.597Z,4.10
2019-03-01T08:01:48.908Z,4.10
2019-03-01T08:04:19.257Z,4.10
2019-03-01T08:06:49.665Z,4.20
2019-03-01T08:09:19.984Z,4.20
2019-03-01T08:11:50.290Z,4.20
2019-03-01T08:14:20.633Z,4.20
2019-03-01T08:16:52.669Z,4.20
2019-03-01T08:19:23.538Z,4.30
2019-03-01T08:21:54.043Z,4.50
2019-03-01T08:24:24.524Z,4.50
2019-03-01T08:26:57.005Z,4.40
2019-03-01T08:29:30.732Z,4.40
2019-03-01T08:31:59.453Z,4.40
2019-03-01T08:34:29.472Z,4.60
2019-03-01T08:36:59.781Z,4.60
2019-03-01T08:39:30.105Z,4.40
2019-03-01T08:42:01.372Z,4.60
2019-03-01T08:44:32.033Z,4.50
2019-03-01T08:47:02.333Z,4.70
2019-03-01T08:49:32.863Z,4.70
2019-03-01T08:52:03.121Z,4.80
2019-03-01T08:54:34.017Z,4.80
2019-03-01T08:57:04.476Z,4.80
2019-03-01T08:59:34.851Z,4.80
2019-03-01T09:02:04.894Z,5.10
2019-03-01T09:04:38.035Z,5.00
2019-03-01T09:07:07.114Z,4.90
2019-03-01T09:09:37.209Z,5.00
2019-03-01T09:12:07.557Z,4.90
2019-03-01T09:14:37.649Z,4.70
2019-03-01T09:17:07.920Z,4.60
2019-03-01T09:19:39.044Z,4.60
2019-03-01T09:22:09.060Z,4.80
2019-03-01T09:24:39.184Z,4.90
2019-03-01T09:27:09.600Z,4.90
2019-03-01T09:29:42.074Z,4.80
2019-03-01T09:32:11.445Z,4.90
2019-03-01T09:34:42.466Z,4.90
2019-03-01T09:37:12.605Z,5.00
2019-03-01T09:39:43.680Z,4.90
2019-03-01T09:42:15.579Z,5.00
2019-03-01T09:44:46.214Z,4.90
2019-03-01T09:47:16.256Z,5.00
2019-03-01T09:49:46.604Z,5.10
2019-03-01T09:52:17.318Z,5.20
2019-03-01T09:54:49.028Z,5.40
2019-03-01T09:57:19.402Z,5.30
2019-03-01T09:59:50.280Z,5.30
2019-03-01T10:02:20.548Z,5.50
2019-03-01T10:04:50.869Z,5.60
2019-03-01T10:07:20.997Z,5.60
2019-03-01T10:09:51.555Z,5.60
2019-03-01T10:12:21.565Z,5.60
2019-03-01T10:14:51.704Z,5.70
2019-03-01T10:17:21.744Z,5.60
2019-03-01T10:19:51.838Z,5.70
2019-03-01T10:22:21.881Z,5.70
2019-03-01T10:24:52.356Z,5.80
2019-03-01T10:27:22.394Z,5.80
2019-03-01T10:29:52.624Z,5.70
2019-03-01T10:32:22.655Z,5.50
2019-03-01T10:34:52.879Z,5.30
2019-03-01T10:37:22.916Z,5.40
2019-03-01T10:39:55.580Z,5.40
2019-03-01T10:42:26.286Z,5.40
2019-03-01T10:44:56.967Z,5.50
2019-03-01T10:47:27.012Z,5.60
2019-03-01T10:49:57.212Z,5.60
2019-03-01T10:52:27.481Z,5.60
2019-03-01T10:54:57.788Z,5.60
2019-03-01T10:57:28.136Z,5.60
2019-03-01T10:59:58.238Z,5.60
2019-03-01T11:02:28.861Z,5.50
2019-03-01T11:04:59.228Z,5.50
2019-03-01T11:07:29.585Z,5.60
2019-03-01T11:10:00.038Z,5.70
2019-03-01T11:12:30.620Z,6.00
2019-03-01T11:15:00.872Z,6.10
2019-03-01T11:17:31.446Z,6.20
2019-03-01T11:20:02.156Z,6.20
2019-03-01T11:22:32.189Z,6.20
2019-03-01T11:25:02.265Z,6.20
2019-03-01T11:27:32.292Z,6.30
2019-03-01T11:30:02.841Z,6.40
2019-03-01T11:32:34.209Z,6.50
2019-03-01T11:35:05.247Z,6.40
2019-03-01T11:37:35.600Z,6.40
2019-03-01T11:40:07.367Z,6.40
2019-03-01T11:42:37.964Z,6.40
2019-03-01T11:45:09.092Z,6.40
2019-03-01T11:47:39.309Z,6.40
2019-03-01T11:50:12.525Z,6.50
2019-03-01T11:52:42.564Z,6.60
2019-03-01T11:55:13.740Z,6.50
2019-03-01T11:57:44.066Z,6.30
2019-03-01T12:00:23.445Z,6.30
2019-03-01T12:02:54.075Z,6.30
2019-03-01T12:05:24.616Z,6.40
2019-03-01T12:07:54.651Z,6.30
2019-03-01T12:10:25.580Z,6.40
2019-03-01T12:12:56.424Z,6.40
2019-03-01T12:15:26.580Z,6.40
2019-03-01T12:17:56.658Z,6.60
2019-03-01T12:20:27.571Z,6.70
2019-03-01T12:22:57.964Z,6.60
2019-03-01T12:25:28.141Z,6.60
2019-03-01T12:27:58.640Z,6.50
2019-03-01T12:30:28.723Z,6.40
2019-03-01T12:32:58.929Z,6.50
2019-03-01T12:35:28.978Z,6.40
2019-03-01T12:37:59.015Z,6.40
2019-03-01T12:40:29.414Z,6.40
2019-03-01T12:42:59.517Z,6.40
2019-03-01T12:45:29.850Z,6.50
2019-03-01T12:48:00.102Z,6.50
2019-03-01T12:50:30.410Z,6.30
2019-03-01T12:53:00.431Z,6.10
2019-03-01T12:55:30.937Z,5.90
2019-03-01T12:58:00.980Z,5.90
2019-03-01T13:00:31.512Z,5.90
2019-03-01T13:03:05.332Z,6.00
2019-03-01T13:05:34.013Z,6.00
2019-03-01T13:08:04.475Z,5.90
2019-03-01T13:10:36.878Z,5.90
2019-03-01T13:13:08.298Z,6.00
2019-03-01T13:15:38.401Z,6.00
2019-03-01T13:18:10.305Z,5.90
2019-03-01T13:20:40.627Z,5.90
2019-03-01T13:23:11.165Z,5.80
2019-03-01T13:25:41.598Z,5.80
2019-03-01T13:28:13.404Z,5.90
2019-03-01T13:30:43.857Z,6.00
2019-03-01T13:33:15.107Z,6.00
2019-03-01T13:35:45.487Z,5.90
2019-03-01T13:38:15.889Z,5.80
2019-03-01T13:40:45.930Z,5.70
2019-03-01T13:43:16.781Z,5.60
2019-03-01T13:45:47.439Z,5.60
2019-03-01T13:48:19.778Z,5.60
2019-03-01T13:50:50.357Z,5.60
2019-03-01T13:53:22.364Z,5.70
2019-03-01T13:55:53.022Z,5.80
2019-03-01T13:58:26.829Z,5.70
2019-03-01T14:00:55.601Z,5.70
2019-03-01T14:03:27.866Z,5.60
2019-03-01T14:05:58.197Z,5.60
2019-03-01T14:08:28.464Z,5.70
2019-03-01T14:10:58.742Z,5.70
2019-03-01T14:13:29.326Z,5.80
2019-03-01T14:15:59.990Z,6.00
2019-03-01T14:18:33.329Z,6.10
2019-03-01T14:21:03.990Z,6.20
2019-03-01T14:23:35.866Z,6.30
2019-03-01T14:26:06.140Z,6.60
2019-03-01T14:28:38.104Z,6.50
2019-03-01T14:31:08.460Z,6.60
2019-03-01T14:33:38.568Z,6.60
2019-03-01T14:36:09.460Z,6.50
2019-03-01T14:38:39.768Z,6.60
2019-03-01T14:41:10.028Z,6.50
2019-03-01T14:43:40.604Z,6.50
2019-03-01T14:46:10.624Z,6.50
2019-03-01T14:48:42.898Z,6.40
2019-03-01T14:51:13.139Z,6.50
2019-03-01T14:53:43.294Z,6.40
2019-03-01T14:56:17.641Z,6.30
2019-03-01T14:59:23.860Z,6.30
2019-03-01T15:02:39.722Z,6.40
2019-03-01T15:05:17.673Z,6.40
2019-03-01T15:07:40.465Z,6.40
2019-03-01T15:10:11.334Z,6.30
2019-03-01T15:12:42.269Z,6.40
2019-03-01T15:15:12.747Z,6.30
2019-03-01T15:17:44.022Z,6.30
2019-03-01T15:20:17.240Z,6.20
2019-03-01T15:22:48.683Z,5.90
2019-03-01T15:25:18.145Z,5.90
2019-03-01T15:27:48.799Z,5.90
2019-03-01T15:30:18.919Z,5.90
2019-03-01T15:32:49.944Z,5.80
2019-03-01T15:35:20.324Z,5.90
2019-03-01T15:37:51.565Z,5.80
2019-03-01T15:40:21.884Z,5.70
2019-03-01T15:42:54.693Z,5.80
2019-03-01T15:45:24.885Z,5.70
2019-03-01T15:47:55.331Z,5.70
2019-03-01T15:50:27.449Z,5.60
2019-03-01T15:52:57.920Z,5.50
2019-03-01T15:55:29.660Z,5.50
2019-03-01T15:57:59.859Z,5.60
2019-03-01T16:00:31.285Z,5.60
2019-03-01T16:03:01.936Z,5.70
2019-03-01T16:05:34.246Z,5.70
2019-03-01T16:08:08.307Z,5.60
2019-03-01T16:10:38.732Z,5.60
2019-03-01T16:13:12.206Z,5.60
2019-03-01T16:15:41.929Z,5.70
2019-03-01T16:18:13.136Z,5.70
2019-03-01T16:20:44.471Z,5.70
2019-03-01T16:23:15.943Z,5.60
2019-03-01T16:25:47.163Z,5.40
2019-03-01T16:28:18.723Z,5.40
2019-03-01T16:30:49.748Z,5.40
2019-03-01T16:33:22.499Z,5.60
2019-03-01T16:35:54.246Z,5.50
2019-03-01T16:38:25.077Z,5.50
2019-03-01T16:40:55.412Z,5.50
2019-03-01T16:43:28.562Z,5.50
2019-03-01T16:45:59.185Z,5.60
2019-03-01T16:48:29.493Z,5.50
2019-03-01T16:50:59.792Z,5.50
2019-03-01T16:53:30.702Z,5.50
2019-03-01T16:56:02.504Z,5.70
2019-03-01T16:58:33.127Z,5.60
2019-03-01T17:01:03.213Z,5.60
2019-03-01T17:03:33.233Z,5.50
2019-03-01T17:06:03.684Z,5.40
2019-03-01T17:08:36.431Z,5.40
2019-03-01T17:11:06.568Z,5.40
2019-03-01T17:13:36.975Z,5.60
2019-03-01T17:16:07.469Z,5.60
2019-03-01T17:18:38.005Z,5.60
2019-03-01T17:21:08.764Z,5.60
2019-03-01T17:23:40.392Z,5.70
2019-03-01T17:26:10.928Z,5.80
2019-03-01T17:28:41.701Z,5.70
2019-03-01T17:31:11.952Z,5.70
2019-03-01T17:33:45.028Z,5.60
2019-03-01T17:36:16.890Z,5.50
2019-03-01T17:38:47.602Z,5.50
2019-03-01T17:41:18.092Z,5.50
2019-03-01T17:43:48.172Z,5.60
2019-03-01T17:46:18.205Z,5.60
2019-03-01T17:48:49.501Z,5.60
2019-03-01T17:51:21.191Z,5.40
2019-03-01T17:53:51.603Z,5.40
2019-03-01T17:56:22.720Z,5.40
2019-03-01T17:58:53.075Z,5.40
2019-03-01T18:01:23.433Z,5.40
2019-03-01T18:03:53.763Z,5.40
2019-03-01T18:06:24.096Z,5.40
2019-03-01T18:08:54.165Z,5.50
2019-03-01T18:11:26.060Z,5.40
2019-03-01T18:14:00.609Z,5.40
2019-03-01T18:16:30.592Z,5.40
2019-03-01T18:19:00.942Z,5.40
2019-03-01T18:21:31.200Z,5.50
2019-03-01T18:24:02.457Z,5.50
2019-03-01T18:26:32.793Z,5.50
2019-03-01T18:29:04.410Z,5.60
2019-03-01T18:31:35.992Z,5.60
2019-03-01T18:34:06.322Z,5.50
2019-03-01T18:36:36.604Z,5.50
2019-03-01T18:39:12.519Z,5.40
2019-03-01T18:41:42.880Z,5.40
2019-03-01T18:44:13.504Z,5.50
2019-03-01T18:46:44.097Z,5.50
2019-03-01T18:49:16.770Z,5.40
2019-03-01T18:51:46.213Z,5.50
2019-03-01T18:54:16.997Z,5.40
2019-03-01T18:56:47.110Z,5.40
2019-03-01T18:59:17.436Z,5.40
2019-03-01T19:01:47.951Z,5.40
2019-03-01T19:04:29.394Z,5.30
2019-03-01T19:06:52.600Z,5.20
2019-03-01T19:09:22.989Z,5.30
2019-03-01T19:11:53.497Z,5.30
2019-03-01T19:14:23.577Z,5.20
2019-03-01T19:16:54.044Z,5.30
2019-03-01T19:19:29.715Z,5.20
2019-03-01T19:21:57.230Z,5.10
2019-03-01T19:24:27.752Z,5.10
2019-03-01T19:26:58.537Z,5.00
2019-03-01T19:29:29.380Z,5.00
2019-03-01T19:31:59.709Z,5.00
2019-03-01T19:34:29.976Z,5.00
2019-03-01T19:37:00.659Z,5.00
2019-03-01T19:39:32.544Z,5.10
2019-03-01T19:42:02.966Z,4.90
2019-03-01T19:44:34.628Z,4.90
2019-03-01T19:47:05.046Z,4.80
2019-03-01T19:49:35.449Z,4.90
2019-03-01T19:52:05.580Z,4.80
2019-03-01T19:54:36.479Z,4.80
2019-03-01T19:57:06.965Z,4.80
2019-03-01T19:59:37.323Z,4.80
2019-03-01T20:02:07.656Z,4.80
2019-03-01T20:04:38.141Z,4.90
2019-03-01T20:07:08.400Z,4.90
2019-03-01T20:09:39.946Z,4.90
2019-03-01T20:12:10.862Z,4.90
2019-03-01T20:14:41.001Z,5.00
2019-03-01T20:17:11.371Z,4.90
2019-03-01T20:19:41.766Z,4.80
2019-03-01T20:22:15.463Z,4.80
2019-03-01T20:24:44.629Z,4.70
2019-03-01T20:27:14.896Z,4.70
2019-03-01T20:29:45.452Z,4.60
2019-03-01T20:32:15.797Z,4.60
2019-03-01T20:34:47.113Z,4.50
2019-03-01T20:37:17.596Z,4.40
2019-03-01T20:39:50.945Z,4.40
2019-03-01T20:42:24.385Z,4.40
2019-03-01T20:44:53.949Z,4.50
2019-03-01T20:47:24.537Z,4.40
2019-03-01T20:49:54.804Z,4.40
2019-03-01T20:52:25.413Z,4.40
2019-03-01T20:54:57.772Z,4.30
2019-03-01T20:57:28.776Z,4.20
2019-03-01T20:59:59.032Z,4.10
2019-03-01T21:02:29.721Z,4.00
2019-03-01T21:05:00.472Z,4.00
2019-03-01T21:07:30.802Z,4.00
2019-03-01T21:10:01.064Z,3.90
2019-03-01T21:12:33.473Z,3.90
2019-03-01T21:15:03.857Z,4.00
2019-03-01T21:17:34.348Z,3.90
2019-03-01T21:20:05.738Z,4.00
2019-03-01T21:22:36.676Z,3.90
2019-03-01T21:25:08.969Z,3.80
2019-03-01T21:27:40.281Z,3.60
2019-03-01T21:30:24.124Z,3.60
2019-03-01T21:32:54.536Z,3.50
2019-03-01T21:35:25.577Z,3.70
2019-03-01T21:37:55.715Z,3.90
2019-03-01T21:40:25.743Z,3.60
2019-03-01T21:42:59.742Z,3.40
2019-03-01T21:45:28.059Z,3.40
2019-03-01T21:47:58.325Z,3.40
2019-03-01T21:50:29.836Z,3.50
2019-03-01T21:53:01.719Z,3.40
2019-03-01T21:55:31.873Z,3.40
2019-03-01T21:58:03.398Z,3.10
2019-03-01T22:00:34.861Z,2.90
2019-03-01T22:03:05.108Z,2.80
2019-03-01T22:05:36.391Z,2.80
2019-03-01T22:08:09.594Z,3.10
2019-03-01T22:10:39.090Z,3.20
2019-03-01T22:13:09.574Z,3.20
2019-03-01T22:15:40.029Z,3.00
2019-03-01T22:18:10.581Z,2.80
2019-03-01T22:20:41.568Z,2.70
2019-03-01T22:23:15.757Z,2.50
2019-03-01T22:25:44.629Z,2.40
2019-03-01T22:28:14.667Z,2.40
2019-03-01T22:30:44.741Z,2.30
2019-03-01T22:33:17.364Z,2.30
2019-03-01T22:35:47.012Z,2.20
2019-03-01T22:38:17.369Z,2.10
2019-03-01T22:40:47.404Z,2.10
2019-03-01T22:43:17.733Z,2.00
2019-03-01T22:45:48.828Z,1.90
2019-03-01T22:48:20.712Z,1.80
2019-03-01T22:50:51.100Z,1.80
2019-03-01T22:53:21.773Z,1.90
2019-03-01T22:55:51.917Z,2.00
2019-03-01T22:58:22.033Z,2.20
2019-03-01T23:01:24.996Z,2.20
2019-03-01T23:03:57.931Z,2.30
2019-03-01T23:06:28.637Z,2.20
2019-03-01T23:08:58.919Z,2.20
2019-03-01T23:11:32.401Z,2.40
2019-03-01T23:14:01.376Z,2.40
2019-03-01T23:16:31.684Z,2.40
2019-03-01T23:19:01.962Z,2.40
2019-03-01T23:21:35.619Z,2.40
2019-03-01T23:24:04.379Z,2.40
2019-03-01T23:26:34.935Z,2.40
2019-03-01T23:29:05.088Z,2.20
2019-03-01T23:31:35.708Z,2.20
2019-03-01T23:34:07.816Z,2.30
2019-03-01T23:36:37.908Z,2.30
2019-03-01T23:39:08.505Z,2.20
2019-03-01T23:41:43.526Z,2.20
2019-03-01T23:44:13.216Z,2.20
2019-03-01T23:46:43.577Z,2.20
2019-03-01T23:49:14.280Z,2.20
2019-03-01T23:51:45.336Z,2.20
2019-03-01T23:54:16.402Z,2.30
2019-03-01T23:56:46.696Z,2.30
2019-03-01T23:59:16.820Z,2.40
